Tiempo atmosférico en la estación meteorológica de Yecla, Murcia (640 m.)



Fecha
DESCASC
Temp. máxima en grados centígrados (hora)
DESCASC
Temp. mínima en grados centígrados (hora)
DESCASC
Temp. media en grados centígrados
DESCASC
Racha de viento máxima en m/sg (hora)
DESCASC
Velocidad máxima media en intervalos de 10 minutos(hora)
DESCASC
Precipitaciones diarias en mm
DESCASC
Precipitaciones de 00:00 a 06:00 en mm
DESCASC
Precipitaciones de 06:00 a 12:00 en mm
DESCASC
Precipitaciones de 12:00 a 18:00 en mm
DESCASC
Precipitaciones de 18:00 a 24:00 en mm
DESCASC
27-01-2020 13 (15:40) 0.5 (06:40) 6.8 12.5 (18:30) 6.94 (18:50) 0 0 0 0 0
26-01-2020 12.5 (14:20) 5.3 (03:40) 8.9 14.72 (12:50) 7.78 (12:40) 0 0 0 0 0
25-01-2020 10.1 (14:00) 5.6 (00:00) 7.9 6.94 (12:10) 5.28 (12:10) 0.4 0 0 0.4 0
24-01-2020 10.1 (15:30) 1.7 (00:00) 5.9 4.72 (12:20) 3.61 (12:20) 0 0 0 0 0
23-01-2020 11.9 (13:50) 0 (00:00) 5.9 6.11 (14:20) 3.61 (14:40) 0 0 0 0 0
22-01-2020 11 (13:20) 2.4 (00:00) 6.7 7.5 (13:30) 5 (12:20) 7 6.4 0 0 0.6
21-01-2020 -- (--) -- (--) -- -- (--) -- (--) -- -- -- 3.4 0.2
20-01-2020 4.1 (22:20) 0.3 (00:00) 2.2 15.56 (01:00) 9.17 (01:10) 13 5.8 2.2 1.2 3.8
19-01-2020 10.4 (00:30) 1.7 (00:00) 6 15.28 (19:20) 8.61 (20:10) 17.4 1.6 0.2 11.2 4.4
18-01-2020 13.8 (15:40) 4 (00:00) 8.9 9.17 (16:10) 6.39 (13:50) 0 0 0 0 0
17-01-2020 15 (14:00) 1.2 (00:00) 8.1 14.17 (12:00) 8.06 (12:10) 0 0 0 0 0
16-01-2020 16.6 (14:50) 0.2 (00:00) 8.4 6.39 (15:00) 4.72 (15:10) 0 0 0 0 0
15-01-2020 15.9 (16:20) -0.7 (-00:0) 7.6 9.44 (16:30) 5 (16:30) 0 0 0 0 0
14-01-2020 14.5 (16:10) 1.7 (00:00) 8.1 13.33 (23:10) 7.78 (22:10) 0 0 0 0 0
13-01-2020 15.1 (14:10) -4.5 (-00:0) 5.3 10.83 (21:00) 6.39 (21:00) 0 0 0 0 0
12-01-2020 14.3 (15:40) -3.2 (-00:0) 5.6 11.67 (11:10) 5.56 (12:50) 0 0 0 0 0
11-01-2020 13.5 (16:20) -0.3 (00:00) 6.6 8.06 (00:10) 5.83 (04:20) 0 0 0 0 0
10-01-2020 12.4 (14:10) 2 (00:00) 7.2 15.56 (09:40) 8.33 (08:50) 0 0 0 0 0
09-01-2020 13.7 (16:30) 1.8 (00:00) 7.7 5 (19:10) 3.89 (19:20) 0 0 0 0 0
08-01-2020 14.2 (13:50) -1 (-00:0) 6.6 6.39 (15:10) 4.17 (13:10) 0 0 0 0 0
07-01-2020 17.5 (15:10) -1.5 (-00:0) 8 5 (16:40) 3.33 (16:20) 0 0 0 0 0
06-01-2020 15.9 (14:20) -3.8 (-00:0) 6 5.28 (19:10) 4.44 (19:10) 0 0 0 0 0
05-01-2020 16.8 (15:20) -1.9 (-00:0) 7.4 4.72 (19:50) 3.89 (19:50) 0 0 0 0 0
04-01-2020 14 (15:10) -1.8 (-00:0) 6.1 4.17 (20:50) 3.61 (20:30) 0 0 0 0 0
03-01-2020 17.2 (14:50) -0.7 (-00:0) 8.3 10.83 (23:00) 6.11 (23:10) 0 0 0 0 0
02-01-2020 10.2 (16:20) -2.2 (-00:0) 4 3.61 (02:20) 2.78 (02:20) 0 0 0 0 0
01-01-2020 16.4 (16:00) -0.4 (00:00) 8 3.89 (19:00) 3.06 (17:50) 0 0 0 0 0
31-12-2019 11.5 (16:10) -0.9 (-00:0) 5.3 5.56 (15:50) 3.61 (19:10) 0 0 0 0 0
30-12-2019 12.1 (15:40) -0.4 (00:00) 5.9 4.17 (14:00) 3.61 (19:20) 0 0 0 0 0

Gráficas

Temp. máximas Temp. mínimas Temp. medias Precipitaciones Rachas de viento máximas Velocidades máximas media en intervalos de 10 minutos

Datos horarios

Fecha y hora oficial Temperatura (ºC) Velocidad del viento (km/h) Dirección del viento Racha (km/h) Dirección de racha Precipitación (mm) Presión (hPa) Tendencia (hPa) Humedad (%)
2020-01-28 23:00:00 11 10 Oeste 20 Oeste 0 949.9 0.6 72
2020-01-28 22:00:00 11.3 3 Noroeste 20 Oeste 0 949.7 0.7 70
2020-01-28 21:00:00 11.2 3 Sudoeste 24 Oeste 0 949.6 0.8 69
2020-01-28 20:00:00 11.1 0 Calma 26 Oeste 0 949.3 0.9 69
2020-01-28 19:00:00 12.2 14 Oeste 33 Oeste 0 949 0.7 65
2020-01-28 18:00:00 12.8 22 Oeste 38 Oeste 0 948.8 0.6 63
2020-01-28 17:00:00 14.5 17 Oeste 42 Oeste 0 948.4 -0.5 57
2020-01-28 16:00:00 15.8 21 Oeste 41 Oeste 0 948.3 -1.4 55
2020-01-28 15:00:00 14.8 22 Oeste 41 Noroeste 0 948.2 -1.9 57
2020-01-28 14:00:00 14.2 10 Oeste 24 Oeste 0 948.9 -1.2 60
2020-01-28 13:00:00 13.4 12 Oeste 26 Oeste 0 949.7 -0.2 59
2020-01-28 12:00:00 13.4 16 Oeste 25 Oeste 0 950.1 0.7 59
2020-01-28 11:00:00 12.2 8 Oeste 17 Oeste 0 950.1 1.2 64
2020-01-28 10:00:00 9.7 13 Oeste 20 Oeste 0 949.9 1.5 71
2020-01-28 09:00:00 9.8 12 Oeste 23 Oeste 0 949.4 1.2 70
2020-01-28 08:00:00 9.4 10 Oeste 35 Oeste 0 948.9 0.7 72
2020-01-28 07:00:00 9.8 19 Oeste 32 Oeste 0 948.4 0.1 70
2020-01-28 06:00:00 9.1 13 Oeste 38 Oeste 0 948.2 -0.6 71
2020-01-28 05:00:00 9 19 Oeste 34 Oeste 0 948.2 -0.3 72
2020-01-28 04:00:00 10.1 27 Oeste 58 Oeste 0 948.3 -0.5 68
2020-01-28 03:00:00 7.9 9 Sudoeste 39 Noroeste 0 948.8 -0.2 73
2020-01-28 02:00:00 9.3 22 Oeste 36 Oeste 0 948.5 -0.6 67
2020-01-28 01:00:00 8.9 16 Oeste 38 Noroeste 0 948.8 -0.2 65
2020-01-28 00:00:00 8.5 18 Oeste 32 Oeste 0 949 0.3 65
2020-01-27 23:00:00 7.1 12 Sudoeste 17 Sudoeste 0 949.1 0.6 69
2020-01-27 22:00:00 7.6 6 Oeste 17 Oeste 0 949 0.9 67
2020-01-27 21:00:00 8.1 10 Sudoeste 24 Oeste 0 948.7 0.9 66
2020-01-27 20:00:00 8.8 15 Oeste 41 Noroeste 0 948.5 0.6 63
2020-01-27 19:00:00 9.6 25 Oeste 45 Oeste 0 948.1 0.4 59
2020-01-27 18:00:00 10.5 18 Oeste 44 Oeste 0 947.8 -0.3 56
2020-01-27 17:00:00 12 16 Oeste 36 Oeste 0 947.9 -1 53
2020-01-27 16:00:00 12.8 17 Oeste 35 Oeste 0 947.7 -2.1 49
2020-01-27 15:00:00 12.6 15 Oeste 33 Oeste 0 948.1 -2.3 50
2020-01-27 14:00:00 12.1 18 Oeste 40 Oeste 0 948.9 -1.8 50
2020-01-27 13:00:00 11.7 20 Oeste 40 Oeste 0 949.8 -0.8 50
2020-01-27 12:00:00 10.6 13 Oeste 36 Oeste 0 950.4 -0.2 57
2020-01-27 11:00:00 9.1 14 Oeste -- -- 0 950.7 0.6 61
2020-01-27 10:00:00 6.5 9 Noroeste -- -- 0 950.6 0.7 70
2020-01-27 09:00:00 2.7 3 Nordeste 8 Nordeste 0 950.6 0.7 84
2020-01-27 08:00:00 4.7 5 Sudoeste 28 Noroeste 0 950.1 0.2 72
2020-01-27 07:00:00 2.4 12 Oeste 24 Oeste 0 949.9 -0.4 91
2020-01-27 06:00:00 1.5 3 Oeste 12 Este 0 949.9 -0.5 88
2020-01-27 05:00:00 2.2 3 Este 15 Oeste 0 949.9 -0.5 86
2020-01-27 04:00:00 2.4 6 Oeste 9 Oeste 0 950.3 -0.3 85
2020-01-27 03:00:00 4 2 Sudeste 34 Oeste 0 950.4 -0.2 80
2020-01-27 02:00:00 6.8 19 Oeste 43 Oeste 0 950.4 0 70
2020-01-27 01:00:00 7.2 19 Oeste 37 Oeste 0 950.6 0.4 68
2020-01-27 00:00:00 7.8 20 Oeste 37 Oeste 0 950.6 0.7 63
2020-01-26 23:00:00 8.5 17 Oeste 35 Oeste 0 950.4 0.9 61
2020-01-26 22:00:00 8.8 16 Oeste 36 Oeste 0 950.2 1.3 66
2020-01-26 21:00:00 6.8 8 Oeste 19 Oeste 0 949.9 1.7 74
2020-01-26 20:00:00 9.1 13 Oeste 28 Oeste 0 949.5 1.7 65
2020-01-26 19:00:00 9.3 15 Oeste 31 Oeste 0 948.9 1.6 64
2020-01-26 18:00:00 10.2 15 Oeste 35 Oeste 0 948.2 0.9 60
2020-01-26 17:00:00 10.8 17 Oeste 35 Oeste 0 947.8 0.3 58
2020-01-26 16:00:00 12.4 17 Oeste 50 Oeste 0 947.3 -0.3 55
2020-01-26 15:00:00 12.1 23 Oeste 44 Oeste 0 947.3 -0.5 54
2020-01-26 14:00:00 12.1 21 Oeste 42 Oeste 0 947.5 0 53
2020-01-26 13:00:00 11.6 21 Oeste 53 Oeste 0 947.6 0.4 57
2020-01-26 12:00:00 10.7 22 Oeste 49 Oeste 0 947.8 1.3 62
2020-01-26 11:00:00 9.9 22 Oeste 41 Oeste 0 947.5 1.7 68
2020-01-26 10:00:00 8.3 17 Oeste 46 Oeste 0 947.2 2.1 76
2020-01-26 09:00:00 7.8 23 Oeste 44 Oeste 0 946.5 2 77
2020-01-26 08:00:00 7.4 19 Oeste 31 Oeste 0 945.8 1.4 79
2020-01-26 07:00:00 7.5 20 Oeste 39 Oeste 0 945.1 0.7 77
2020-01-26 06:00:00 6.9 13 Oeste 30 Oeste 0 944.5 0.3 88
2020-01-26 05:00:00 6.1 8 Oeste 19 Oeste 0 944.4 0.3 94
2020-01-26 04:00:00 5.4 2 Este 6 Oeste 0 944.4 0.1 93
2020-01-26 03:00:00 5.5 3 Sudoeste 4 Sudoeste 0 944.2 -0.1 93
2020-01-26 02:00:00 5.9 0 Calma 9 Oeste 0 944.1 0 93
2020-01-26 01:00:00 5.7 5 Sudoeste 7 Sudoeste 0 944.3 0.4 93
2020-01-26 00:00:00 5.9 4 Oeste 5 Oeste 0 944.3 0.6 92
2020-01-25 23:00:00 6.1 2 Sur 12 Oeste 0 944.1 0.6 92
2020-01-25 22:00:00 6.6 8 Oeste 12 Oeste 0 943.9 0.8 91
2020-01-25 21:00:00 7.3 5 Oeste 10 Oeste 0 943.7 0.9 91
2020-01-25 20:00:00 7.5 8 Oeste 11 Oeste 0 943.5 1.1 90
2020-01-25 19:00:00 8 3 Oeste 8 Este 0 943.1 0.2 89
2020-01-25 18:00:00 8.9 8 Sudoeste 12 Sudoeste 0 942.8 -0.5 87
2020-01-25 17:00:00 9.1 4 Nordeste 10 Sudeste 0.4 942.4 -1.3 86
2020-01-25 16:00:00 9.7 7 Este 11 Este 0 942.9 -1.5 81
2020-01-25 15:00:00 9.7 2 Sur 7 Oeste 0 943.3 -1.3 79
2020-01-25 14:00:00 10.1 4 Este 9 Este 0 943.7 -1.7 78
2020-01-25 13:00:00 8.5 5 Este 25 Nordeste 0 944.4 -0.5 85
2020-01-25 12:00:00 8 12 Nordeste 18 Nordeste 0 944.6 -0.2 88
2020-01-25 11:00:00 8.1 6 Nordeste 9 Nordeste 0 945.4 0.8 92
2020-01-25 10:00:00 7.1 4 Sudoeste 11 Este 0 944.9 0.4 94
2020-01-25 09:00:00 6.1 3 Oeste 11 Nordeste 0 944.8 0.5 94
2020-01-25 08:00:00 6.1 9 Nordeste 12 Nordeste 0 944.6 0.5 94
2020-01-25 07:00:00 6.2 3 Sur 7 Sudoeste 0 944.5 -0.3 94
2020-01-25 06:00:00 5.9 4 Oeste 5 Oeste 0 944.3 -0.7 94
2020-01-25 05:00:00 5.6 0 Calma 9 Este 0 944.1 -1 94
2020-01-25 04:00:00 5.7 3 Este 5 Este 0 944.8 -0.9 93
2020-01-25 03:00:00 5.6 0 Calma 5 Nordeste 0 945 -0.9 93
2020-01-25 02:00:00 6.4 5 Oeste 10 Oeste 0 945.1 -1.1 93
2020-01-25 01:00:00 5.9 5 Sudoeste 9 Sudoeste 0 945.7 -0.6 91
2020-01-25 00:00:00 6.1 4 Sudoeste 6 Oeste 0 945.9 -0.1 91
2020-01-24 23:00:00 6.8 3 Nordeste 6 Nordeste 0 946.2 0.3 90
2020-01-24 22:00:00 6.9 5 Oeste 10 Norte 0 946.3 0.8 90
2020-01-24 21:00:00 7.7 5 Norte 8 Norte 0 946 0.8 87
2020-01-24 20:00:00 8.1 4 Nordeste 10 Nordeste 0 945.9 0.6 86
2020-01-24 19:00:00 8.6 0 Calma 5 Este 0 945.5 0.1 82
2020-01-24 18:00:00 9.3 5 Este 9 Este 0 945.2 -0.5 76
2020-01-24 17:00:00 9.7 4 Sudeste 11 Sudeste 0 945.3 -1 75
2020-01-24 16:00:00 10 6 Este 13 Nordeste 0 945.4 -1.6 73
2020-01-24 15:00:00 9.3 4 Nordeste 10 Nordeste 0 945.7 -1.9 76
2020-01-24 14:00:00 9.3 6 Este 13 Este 0 946.3 -1.5 76
2020-01-24 13:00:00 9.1 7 Nordeste 17 Nordeste 0 947 -0.4 79
2020-01-24 12:00:00 7.8 10 Nordeste 15 Nordeste 0 947.6 0.5 89
2020-01-24 11:00:00 6.8 7 Nordeste 13 Nordeste 0 947.8 1.2 93
2020-01-24 10:00:00 6.3 6 Nordeste 10 Nordeste 0 947.4 1.1 94
2020-01-24 09:00:00 5.2 2 Sur 5 Este 0 947.1 0.8 94
2020-01-24 08:00:00 4.8 2 Sur 7 Sudeste 0 946.6 0.2 94
2020-01-24 07:00:00 4.3 5 Sudeste 9 Sudeste 0 946.3 -0.6 94
2020-01-24 06:00:00 4 3 Sur 14 Nordeste 0 946.3 -0.9 94
2020-01-24 05:00:00 3.7 5 Este 15 Nordeste 0 946.4 -0.6 94
2020-01-24 04:00:00 2.6 8 Oeste 13 Oeste 0 946.9 -0.2 94
2020-01-24 03:00:00 2.1 7 Oeste 12 Oeste 0 947.2 0.1 94
2020-01-24 02:00:00 1.9 5 Oeste 8 Oeste 0 947 -0.1 93
2020-01-24 01:00:00 2.5 3 Oeste 6 Oeste 0 947.1 0.1 93
2020-01-24 00:00:00 2.5 3 Sudoeste 9 Oeste 0 947.1 0.4 92
2020-01-23 23:00:00 2.8 6 Oeste 10 Oeste 0 947.1 0.9 91
2020-01-23 22:00:00 3.5 5 Oeste 11 Sudoeste 0 947 1.3 90
2020-01-23 21:00:00 4.6 3 Oeste 7 Norte 0 946.7 1.5 88
2020-01-23 20:00:00 6.6 2 Oeste 8 Este 0 946.2 1.3 85
2020-01-23 19:00:00 7.9 3 Nordeste 8 Sudeste 0 945.7 1.2 81
2020-01-23 18:00:00 9.3 4 Sudeste 15 Sudeste 0 945.2 0.5 77
2020-01-23 17:00:00 10 7 Sudeste 18 Sudeste 0 944.9 -0.2 73
2020-01-23 16:00:00 10.6 11 Sur 18 Sur 0 944.5 -1.3 68
2020-01-23 15:00:00 10.6 9 Sur 22 Sudeste 0 944.7 -1.6 69
2020-01-23 14:00:00 11.8 12 Sudeste 21 Sudeste 0 945.1 -1.1 65
2020-01-23 13:00:00 10.5 6 Sudeste 14 Sudeste 0 945.8 0 73
2020-01-23 12:00:00 9.1 7 Este 14 Este 0 946.3 1.2 88
2020-01-23 11:00:00 6.9 0 Calma 5 Nordeste 0 946.2 1.7 94
2020-01-23 10:00:00 3.2 2 Nordeste 6 Sudeste 0 945.8 1.8 94
2020-01-23 09:00:00 0.7 0 Calma 6 Sudoeste 0 945.1 1.1 94
2020-01-23 08:00:00 0.6 0 Calma 6 Oeste 0 944.5 0.3 94
2020-01-23 07:00:00 0.5 2 Norte 10 Oeste 0 944 -0.5 94
2020-01-23 06:00:00 0 3 Sudoeste 5 Oeste 0 944 -0.4 94
2020-01-23 05:00:00 0.9 2 Nordeste 8 Oeste 0 944.2 -0.1 94
2020-01-23 04:00:00 0.4 5 Oeste 7 Sudoeste 0 944.5 0 94
2020-01-23 03:00:00 0.3 2 Sudoeste 4 Oeste 0 944.4 -0.1 93
2020-01-23 02:00:00 1.2 4 Sudoeste 10 Sudoeste 0 944.3 0.6 93
2020-01-23 01:00:00 1.5 5 Sudoeste 9 Oeste 0 944.5 1 92
2020-01-23 00:00:00 2.5 4 Oeste 15 Oeste 0 944.5 1.3 92
2020-01-22 23:00:00 3.2 13 Oeste 16 Oeste 0 943.7 0.8 91
2020-01-22 22:00:00 3.5 5 Oeste 13 Sudoeste 0 943.5 0.8 90
2020-01-22 21:00:00 4.1 6 Oeste 9 Oeste 0 943.2 0.7 89
2020-01-22 20:00:00 6.3 4 Este 14 Noroeste 0 942.9 0.9 88
2020-01-22 19:00:00 7.1 4 Nordeste 17 Este 0.6 942.7 0.7 88
2020-01-22 18:00:00 8 6 Nordeste 24 Nordeste 0 942.5 0.3 84
2020-01-22 17:00:00 8.8 15 Nordeste 23 Nordeste 0 942 -0.7 76
2020-01-22 16:00:00 9.9 14 Nordeste 24 Nordeste 0 942 -1.5 71
2020-01-22 15:00:00 10.1 14 Nordeste 25 Nordeste 0 942.2 -2 71
2020-01-22 14:00:00 10.2 16 Nordeste 27 Nordeste 0 942.7 -1.4 72
2020-01-22 13:00:00 10.4 12 Nordeste 26 Este 0 943.5 -0.5 72
2020-01-22 12:00:00 9.4 15 Nordeste 26 Nordeste 0 944.2 -0.1 75
2020-01-22 11:00:00 8.7 11 Nordeste 19 Nordeste 0 944.1 0 79
2020-01-22 10:00:00 6.9 4 Este 10 Este 0 944 0.3 93
2020-01-22 09:00:00 4.6 7 Nordeste 12 Nordeste 0 944.3 1.1 93
2020-01-22 08:00:00 5.1 6 Nordeste 11 Nordeste 0 944.1 1 93
2020-01-22 07:00:00 4.7 3 Nordeste 17 Nordeste 0 943.7 0.6 93
2020-01-22 06:00:00 4.6 9 Nordeste 22 Nordeste 0 943.2 0.1 92
2020-01-22 05:00:00 5.3 6 Nordeste 14 Nordeste 0 943.1 -0.1 92
2020-01-22 04:00:00 5.7 10 Nordeste 15 Nordeste 0 943.1 0.2 92
2020-01-22 03:00:00 5.8 9 Nordeste 14 Nordeste 0.2 943.1 0.1 93
2020-01-22 02:00:00 5.7 6 Nordeste 16 Nordeste 3.4 943.2 0.8 93
2020-01-22 01:00:00 5.7 9 Nordeste 16 Nordeste 2.8 942.9 0.9 92
2020-01-22 00:00:00 5.9 10 Nordeste 17 Nordeste 0.2 943 1.6 92
2020-01-21 23:00:00 6.1 7 Nordeste 13 Nordeste 0 942.4 1.6 91
2020-01-21 22:00:00 5.8 8 Nordeste 14 Este 0 942 2.2 91
2020-01-21 21:00:00 5.9 4 Este 11 Nordeste 0 941.4 2.2 91
2020-01-21 20:00:00 6.5 8 Nordeste 18 Nordeste 0 940.8 2.4 91
2020-01-21 19:00:00 6.3 4 Este 15 Nordeste 0 939.8 2 91
2020-01-21 18:00:00 6.7 8 Nordeste 14 Noroeste 0 939.2 1.6 89
2020-01-21 17:00:00 7.3 9 Norte 26 Norte 3.4 938.4 0.2 85
2020-01-21 16:00:00 7.9 19 Norte 26 Norte 0 937.8 -0.6 79
2020-01-21 15:00:00 8.6 13 Norte 27 Norte 0 937.6 -1 80
2020-01-21 14:00:00 6.2 19 Oeste 27 Oeste 0 938.2 -0.5 85
2020-01-21 13:00:00 7.5 11 Este 31 Nordeste 0 938.4 -0.2 89
2020-01-21 12:00:00 7.2 16 Nordeste 33 Nordeste 0 938.6 -- 90
2020-01-21 11:00:00 5.9 19 Nordeste 31 Nordeste 1 938.7 -- 91
2020-01-21 10:00:00 5.7 12 Nordeste -- -- -- 938.6 -- 88
2020-01-21 09:00:00 -- -- -- -- -- -- -- -- --
2020-01-21 08:00:00 -- -- -- -- -- -- -- -- --
2020-01-21 07:00:00 -- -- -- -- -- -- -- -- --
2020-01-21 06:00:00 -- -- -- -- -- -- -- -- --
2020-01-21 05:00:00 -- -- -- -- -- -- -- -- --
2020-01-21 04:00:00 -- -- -- -- -- -- -- -- --
2020-01-21 03:00:00 4 21 Norte 40 Norte 1.2 941.9 -1.7 87
2020-01-21 02:00:00 4.4 24 Norte 37 Nordeste 0 941.9 -1.3 83
2020-01-21 01:00:00 4 17 Nordeste 33 Nordeste 0.2 942.8 -0.3 90
2020-01-21 00:00:00 3.5 23 Nordeste 37 Nordeste 1 943.6 0.2 93
2020-01-20 23:00:00 3.9 20 Nordeste 40 Nordeste 0.6 943.2 0.4 92
2020-01-20 22:00:00 3.9 20 Nordeste 35 Nordeste 0.2 943.1 0 93
2020-01-20 21:00:00 3.5 20 Nordeste 42 Nordeste 1.8 943.4 0.7 94
2020-01-20 20:00:00 3.4 19 Nordeste 34 Nordeste 0 942.8 0.1 94
2020-01-20 19:00:00 3.1 21 Nordeste 36 Este 0.2 943.1 0.6 94
2020-01-20 18:00:00 3 20 Nordeste 40 Nordeste 0.2 942.7 0.1 94
2020-01-20 17:00:00 3 25 Nordeste 45 Nordeste 0.2 942.7 -0.3 94
2020-01-20 16:00:00 2.5 17 Este 40 Nordeste 0.4 942.5 -1 94
2020-01-20 15:00:00 2.8 25 Nordeste 37 Nordeste 0.2 942.6 -1 94
2020-01-20 14:00:00 2.7 24 Nordeste 39 Nordeste 0.2 943 -0.5 94
2020-01-20 13:00:00 1.8 16 Nordeste 35 Este 0 943.5 0.4 94
2020-01-20 12:00:00 1.5 17 Nordeste 36 Nordeste 0.2 943.6 0.8 94
2020-01-20 11:00:00 1 23 Nordeste 44 Nordeste 0.6 943.5 1 95
2020-01-20 10:00:00 0.5 17 Nordeste 45 Norte 0.2 943.1 1.2 95
2020-01-20 09:00:00 0.3 24 Norte 44 Norte 0.6 942.8 0.9 93
2020-01-20 08:00:00 0.5 24 Nordeste 43 Nordeste 0.6 942.5 0.8 90
2020-01-20 07:00:00 0.8 25 Norte 47 Nordeste 0 941.9 -0.6 87
2020-01-20 06:00:00 0.9 28 Nordeste 51 Nordeste 0 941.9 -0.5 88
2020-01-20 05:00:00 0.7 28 Nordeste 50 Nordeste 0.4 941.7 -0.7 91
2020-01-20 04:00:00 0.8 27 Nordeste 50 Nordeste 1.2 942.5 -0.4 90
2020-01-20 03:00:00 0.8 28 Norte 44 Norte 1.6 942.4 -0.7 91
2020-01-20 02:00:00 1.1 26 Norte 56 Nordeste 1.6 942.4 -0.5 89
2020-01-20 01:00:00 2 29 Nordeste 56 Nordeste 1 942.9 0.4 87
2020-01-20 00:00:00 2.5 23 Nordeste 41 Nordeste 0.6 943.1 0.6 87
2020-01-19 23:00:00 2.8 23 Nordeste 48 Norte 1.4 942.9 0.3 87
2020-01-19 22:00:00 2.1 25 Norte 40 Norte 1.2 942.5 -0.2 87
2020-01-19 21:00:00 2.4 27 Nordeste 49 Nordeste 0.8 942.5 0 86
2020-01-19 20:00:00 2.4 27 Nordeste 55 Nordeste 0.2 942.6 0 86
2020-01-19 19:00:00 2.6 26 Nordeste 50 Nordeste 0.2 942.7 0.7 86
2020-01-19 18:00:00 1.9 18 Nordeste 36 Nordeste 1 942.5 0.7 89
2020-01-19 17:00:00 2.1 23 Nordeste 49 Nordeste 3 942.6 1 89
2020-01-19 16:00:00 2.3 22 Norte 33 Nordeste 2.8 942 0 87
2020-01-19 15:00:00 3.6 19 Nordeste 35 Norte 1.8 941.8 -0.6 85
2020-01-19 14:00:00 4.6 17 Norte 37 Nordeste 0.8 941.6 -0.1 83
2020-01-19 13:00:00 4.6 16 Norte 29 Norte 1.8 942 0.8 84
2020-01-19 12:00:00 5 21 Norte 37 Norte 0.2 942.4 1.6 82
2020-01-19 11:00:00 6.6 14 Norte 34 Noroeste 0 941.7 1.1 73
2020-01-19 10:00:00 6.3 14 Oeste 32 Oeste 0 941.2 0.4 76
2020-01-19 09:00:00 6.2 6 Noroeste 34 Oeste 0 940.8 -0.9 79
2020-01-19 08:00:00 6.3 12 Noroeste -- -- 0 940.6 -1.9 74
2020-01-19 07:00:00 6 7 Noroeste 48 Oeste 0 940.8 -2.6 77
2020-01-19 06:00:00 6.8 8 Noroeste 36 Oeste 0 941.7 -2.8 75
2020-01-19 05:00:00 7.1 5 Nordeste 25 Oeste 0 942.5 -1.8 79
2020-01-19 04:00:00 8 13 Oeste 45 Oeste 0.8 943.4 -1.9 74
2020-01-19 03:00:00 7.9 22 Oeste -- -- 0.8 944.5 -1.9 79
2020-01-19 02:00:00 7.1 7 Sudoeste 13 Sur 0 944.3 -2 79
2020-01-19 01:00:00 9.8 3 Sudoeste 24 Oeste 0 945.3 -1.4 76
2020-01-19 00:00:00 9.9 8 Oeste 29 Norte 0 946.4 -1.1 74
2020-01-18 23:00:00 7.6 8 Sudoeste 13 Oeste 0 946.3 -2 77
2020-01-18 22:00:00 8.9 8 Oeste 19 Oeste 0 946.7 -2 70
2020-01-18 21:00:00 10 8 Sudoeste 21 Oeste 0 947.5 -1.8 68
2020-01-18 20:00:00 9.8 16 Oeste 21 Oeste 0 948.3 -1.8 67
2020-01-18 19:00:00 9 9 Oeste 14 Sudoeste 0 948.7 -2.3 68
2020-01-18 18:00:00 10.9 8 Sudoeste 23 Oeste 0 949.3 -2.3 61
2020-01-18 17:00:00 12.9 16 Oeste 33 Oeste 0 950.1 -2.6 53
2020-01-18 16:00:00 13.2 21 Oeste 31 Sudoeste 0 951 -3.3 51
2020-01-18 15:00:00 12.3 21 Sudoeste 28 Sudoeste 0 951.6 -4.5 50
2020-01-18 14:00:00 12.1 21 Sudoeste 31 Oeste 0 952.7 -3.4 51
2020-01-18 13:00:00 11.2 16 Sudoeste 22 Oeste 0 954.3 -2 59
2020-01-18 12:00:00 10 9 Oeste 18 Oeste 0 956.1 -0.3 66
2020-01-18 11:00:00 7.1 5 Este 10 Sur 0 956.1 0.5 78
2020-01-18 10:00:00 5.4 0 Calma 4 Norte 0 956.3 1.3 84
2020-01-18 09:00:00 4.5 3 Sudoeste 7 Sudoeste 0 956.4 1.8 85
2020-01-18 08:00:00 4.1 0 Calma 4 Oeste 0 955.6 0.6 84
2020-01-18 07:00:00 4.4 2 Sur 12 Norte 0 955 -0.8 81
2020-01-18 06:00:00 5.4 12 Oeste 17 Oeste 0 954.6 -2.1 80
2020-01-18 05:00:00 4.8 10 Oeste 14 Sudoeste 0 955 -2.1 81
2020-01-18 04:00:00 5.3 4 Este 10 Noroeste 0 955.8 -1.7 77
2020-01-18 03:00:00 6.2 7 Norte 12 Nordeste 0 956.7 -0.7 76
2020-01-18 02:00:00 6 5 Este 10 Oeste 0 957.1 -0.2 75
2020-01-18 01:00:00 5.9 5 Sudoeste 10 Nordeste 0 957.5 0.8 74
2020-01-18 00:00:00 6.9 7 Nordeste 9 Nordeste 0 957.4 1 68
2020-01-17 23:00:00 9.5 5 Sudoeste 21 Sudoeste 0 957.3 1.2 61
2020-01-17 22:00:00 9.9 7 Noroeste 26 Oeste 0 956.7 0.7 58
2020-01-17 21:00:00 10.4 13 Oeste 32 Oeste 0 956.4 1.5 55
2020-01-17 20:00:00 11.2 20 Oeste 35 Sudoeste 0 956.1 1.5 51
2020-01-17 19:00:00 11.5 13 Oeste 32 Oeste 0 956 1.3 51
2020-01-17 18:00:00 12.3 11 Oeste 40 Oeste 0 954.9 0.1 49
2020-01-17 17:00:00 13.4 22 Oeste 45 Oeste 0 954.6 -0.4 46
2020-01-17 16:00:00 15 19 Oeste 40 Oeste 0 954.7 -0.9 40
2020-01-17 15:00:00 14 22 Oeste 45 Oeste 0 954.8 -1.2 45
2020-01-17 14:00:00 14.9 20 Oeste 41 Oeste 0 955 -0.9 43
2020-01-17 13:00:00 14.6 16 Oeste 48 Oeste 0 955.6 0.3 48
2020-01-17 12:00:00 13.2 27 Oeste 51 Oeste 0 956 1.2 50
2020-01-17 11:00:00 12.4 13 Oeste 37 Oeste 0 955.9 1.4 50
2020-01-17 10:00:00 6.8 3 Nordeste 9 Sudoeste 0 955.3 1.7 61
2020-01-17 09:00:00 4.8 7 Sudoeste 9 Sudoeste 0 954.8 1.5 65
2020-01-17 08:00:00 3.5 3 Sur 7 Sur 0 954.5 1.2 69
2020-01-17 07:00:00 4.6 5 Sudoeste 14 Sudoeste 0 953.6 -0.3 61
2020-01-17 06:00:00 4 7 Sudoeste 15 Oeste 0 953.3 -0.4 67
2020-01-17 05:00:00 2.5 4 Oeste 10 Sudoeste 0 953.3 -0.2 70
2020-01-17 04:00:00 1.4 8 Sudoeste 10 Sudoeste 0 953.9 0.1 79
2020-01-17 03:00:00 4.6 10 Oeste 13 Oeste 0 953.7 -0.2 74
2020-01-17 02:00:00 1.8 3 Sudoeste 7 Oeste 0 953.5 -0.2 83
2020-01-17 01:00:00 1.6 5 Oeste 12 Oeste 0 953.8 0.4 83
2020-01-17 00:00:00 2 3 Oeste 6 Oeste 0 953.9 0.8 81
2020-01-16 23:00:00 3.4 5 Oeste 8 Oeste 0 953.7 0.9 77
2020-01-16 22:00:00 4.9 3 Nordeste 6 Nordeste 0 953.4 1 73
2020-01-16 21:00:00 5.8 3 Sur 13 Sudoeste 0 953.1 1.3 70
2020-01-16 20:00:00 7.4 10 Sudoeste 16 Oeste 0 952.8 1.1 65
2020-01-16 19:00:00 9.3 13 Oeste 14 Oeste 0 952.4 0.7 58
2020-01-16 18:00:00 12.6 7 Sudoeste 13 Sudoeste 0 951.8 0.1 47
2020-01-16 17:00:00 15.4 8 Sudoeste 18 Sudoeste 0 951.7 -0.5 42
2020-01-16 16:00:00 15.8 12 Sudoeste 22 Sudoeste 0 951.7 -1.3 43
2020-01-16 15:00:00 16.4 11 Sudoeste 23 Oeste 0 951.7 -2.3 41
2020-01-16 14:00:00 16 8 Sur 17 Sur 0 952.2 -2 43
2020-01-16 13:00:00 15.1 6 Sur 13 Sudoeste 0 953 -0.9 45
2020-01-16 12:00:00 14.2 3 Sudeste 7 Nordeste 0 954 0.2 47
2020-01-16 11:00:00 10.7 2 Sudeste 6 Sudeste 0 954.2 0.6 53
2020-01-16 10:00:00 6.4 2 Sur 7 Oeste 0 953.9 0.8 76
2020-01-16 09:00:00 1.1 4 Sudoeste 9 Oeste 0 953.8 0.6 87
2020-01-16 08:00:00 1 4 Sudoeste 12 Sudoeste 0 953.6 0.2 85
2020-01-16 07:00:00 1 7 Oeste 10 Oeste 0 953.1 -0.4 86
2020-01-16 06:00:00 1.1 4 Oeste 9 Oeste 0 953.2 0.1 85
2020-01-16 05:00:00 1.3 3 Oeste 8 Noroeste 0 953.4 0.2 82
2020-01-16 04:00:00 1.6 2 Sudeste 6 Oeste 0 953.5 0 81
2020-01-16 03:00:00 2 2 Nordeste 10 Oeste 0 953.1 -0.5 84
2020-01-16 02:00:00 1.9 4 Sur 9 Sudoeste 0 953.2 -0.2 84
2020-01-16 01:00:00 2.9 0 Calma 8 Noroeste 0 953.5 0.3 81
2020-01-16 00:00:00 3.7 4 Sudeste 6 Sur 0 953.6 0.6 78
2020-01-15 23:00:00 4.5 3 Noroeste 6 Sudoeste 0 953.4 0.8 77
2020-01-15 22:00:00 4.9 3 Sudoeste 8 Oeste 0 953.2 1.1 71
2020-01-15 21:00:00 6.8 3 Sudoeste 13 Sudoeste 0 953 1.6 65
2020-01-15 20:00:00 9.2 6 Oeste 12 Sudoeste 0 952.6 1.7 57
2020-01-15 19:00:00 11.3 3 Noroeste 28 Oeste 0 952.1 1.5 49
2020-01-15 18:00:00 13.6 11 Oeste 32 Oeste 0 951.4 1 40
2020-01-15 17:00:00 15.6 13 Oeste 34 Oeste 0 950.9 0 34
2020-01-15 16:00:00 15.7 15 Oeste 31 Oeste 0 950.6 -0.8 31
2020-01-15 15:00:00 15.1 13 Sudoeste 29 Oeste 0 950.4 -1.5 34
2020-01-15 14:00:00 14.3 12 Sudoeste 22 Sudoeste 0 950.9 -0.8 39
2020-01-15 13:00:00 12.8 6 Este 12 Nordeste 0 951.4 0.4 46
2020-01-15 12:00:00 9.7 4 Nordeste 8 Este 0 951.9 1.4 55
2020-01-15 11:00:00 7.6 3 Sudeste 6 Sudeste 0 951.7 1.7 63
2020-01-15 10:00:00 4.1 0 Calma 5 Sudoeste 0 951 1.9 77
2020-01-15 09:00:00 -0.2 3 Sudoeste 8 Sudoeste 0 950.5 1.6 87
2020-01-15 08:00:00 0.6 2 Sudoeste 12 Sudeste 0 950 1 84
2020-01-15 07:00:00 1.2 4 Nordeste 11 Sudeste 0 949.1 0 82
2020-01-15 06:00:00 1.6 5 Este 12 Sudeste 0 948.9 0 82
2020-01-15 05:00:00 0.5 3 Norte 9 Sudoeste 0 949 0.2 83
2020-01-15 04:00:00 0.9 3 Este 10 Sudoeste 0 949.1 0.1 81
2020-01-15 03:00:00 1.1 3 Sudeste 9 Nordeste 0 948.9 0 79
2020-01-15 02:00:00 1.5 3 Este 14 Sudoeste 0 948.8 0.2 75
2020-01-15 01:00:00 4.8 10 Oeste 30 Noroeste 0 949 0.6 65
2020-01-15 00:00:00 7.3 9 Oeste 48 Norte 0 948.9 0.6 57
2020-01-14 23:00:00 7.7 25 Noroeste 45 Noroeste 0 948.6 0.5 54
2020-01-14 22:00:00 8 24 Noroeste 45 Noroeste 0 948.4 0.7 55
2020-01-14 21:00:00 7.3 8 Noroeste 27 Oeste 0 948.3 1.2 58
2020-01-14 20:00:00 4.9 2 Sudoeste 8 Sudoeste 0 948.1 1.3 67
2020-01-14 19:00:00 6.4 5 Sudoeste 12 Norte 0 947.7 1.1 57
2020-01-14 18:00:00 10.3 10 Noroeste 23 Noroeste 0 947.1 0.5 44
2020-01-14 17:00:00 13.1 10 Noroeste 16 Noroeste 0 946.8 -0.4 30
2020-01-14 16:00:00 14.4 8 Sudoeste 19 Oeste 0 946.6 -1.4 28
2020-01-14 15:00:00 13.9 8 Sudoeste 23 Oeste 0 946.6 -2.2 28
2020-01-14 14:00:00 12.9 11 Oeste 22 Oeste 0 947.2 -1.9 34
2020-01-14 13:00:00 11.4 7 Noroeste 20 Noroeste 0 948 -0.8 43
2020-01-14 12:00:00 9.5 8 Norte 22 Oeste 0 948.8 0.4 48
2020-01-14 11:00:00 8.6 5 Este 10 Este 0 949.1 1 50
2020-01-14 10:00:00 6.3 5 Sudeste 12 Sudoeste 0 948.8 0.9 59
2020-01-14 09:00:00 1.8 5 Este 14 Sudeste 0 948.4 1 74
2020-01-14 08:00:00 4.6 9 Sur 25 Nordeste 0 948.1 0.7 64
2020-01-14 07:00:00 6.1 9 Noroeste -- -- 0 947.9 0.4 58
2020-01-14 06:00:00 5.9 12 Oeste 31 Noroeste 0 947.4 -0.3 60
2020-01-14 05:00:00 5.5 9 Sudeste 45 Oeste 0 947.4 -0.7 58
2020-01-14 04:00:00 6.9 11 Oeste 35 Noroeste 0 947.5 -0.9 55
2020-01-14 03:00:00 6.9 14 Noroeste 44 Noroeste 0 947.7 -1.2 51
2020-01-14 02:00:00 7.4 15 Noroeste 35 Noroeste 0 948.1 -0.7 49
2020-01-14 01:00:00 7.7 17 Oeste 35 Oeste 0 948.4 -0.5 52
2020-01-14 00:00:00 7.7 17 Noroeste 32 Oeste 0 948.9 0 48
2020-01-13 23:00:00 7.5 5 Noroeste 21 Oeste 0 948.8 -0.4 48
2020-01-13 22:00:00 7.4 9 Sur 38 Noroeste 0 948.9 -0.1 49
2020-01-13 21:00:00 8.4 23 Noroeste 39 Norte 0 948.9 0.4 45
2020-01-13 20:00:00 8.9 10 Noroeste 26 Noroeste 0 949.2 0.8 44
2020-01-13 19:00:00 9.9 6 Este 24 Sudoeste 0 949 0.6 44
2020-01-13 18:00:00 10 11 Sudoeste 17 Sudoeste 0 948.5 -0.4 44
2020-01-13 17:00:00 12.9 10 Sudoeste 18 Sudoeste 0 948.4 -1.1 31
2020-01-13 16:00:00 13.6 12 Sudoeste 19 Sudoeste 0 948.4 -2.3 30
2020-01-13 15:00:00 14.2 13 Oeste 21 Oeste 0 948.9 -2.8 26
2020-01-13 14:00:00 14.4 4 Sudeste 12 Este 0 949.5 -2.6 33
2020-01-13 13:00:00 12.2 4 Este 11 Nordeste 0 950.7 -1.2 36
2020-01-13 12:00:00 9.4 4 Nordeste 8 Nordeste 0 951.7 -0.2 44
2020-01-13 11:00:00 7.5 0 Calma 5 Sudeste 0 952.1 0.4 55
2020-01-13 10:00:00 2 0 Calma 6 Sudoeste 0 951.9 0.1 79
2020-01-13 09:00:00 -3.3 3 Sudoeste 8 Oeste 0 951.9 0.2 88
2020-01-13 08:00:00 -3.7 4 Oeste 12 Sudoeste 0 951.7 -0.6 89
2020-01-13 07:00:00 -4 6 Oeste 8 Oeste 0 951.8 -1.1 90
2020-01-13 06:00:00 -3.4 5 Oeste 7 Oeste 0 951.7 -1.6 90
2020-01-13 05:00:00 -3.1 5 Sudoeste 9 Sudoeste 0 952.3 -1.2 88
2020-01-13 04:00:00 -3.1 7 Oeste 10 Oeste 0 952.9 -1.4 87
2020-01-13 03:00:00 -3.8 2 Sudoeste 8 Oeste 0 953.3 -1.6 85
2020-01-13 02:00:00 -3.3 3 Noroeste 6 Sudoeste 0 953.5 -1.4 82
2020-01-13 01:00:00 -2.1 2 Sudoeste 8 Sudoeste 0 954.3 -0.4 79
2020-01-13 00:00:00 -1 8 Oeste 11 Sudoeste 0 954.9 0.2 77
2020-01-12 23:00:00 -0.8 3 Oeste 10 Sudoeste 0 954.9 0.5 75
2020-01-12 22:00:00 0.1 2 Noroeste 9 Sudoeste 0 954.7 1 70
2020-01-12 21:00:00 1.5 5 Oeste 9 Sudoeste 0 954.7 1.4 65
2020-01-12 20:00:00 3.8 3 Sur 16 Oeste 0 954.4 1.4 54
2020-01-12 19:00:00 5.8 12 Oeste 16 Oeste 0 953.7 0.9 50
2020-01-12 18:00:00 10.1 4 Norte 11 Noroeste 0 953.3 0.5 37
2020-01-12 17:00:00 13.6 5 Oeste 22 Oeste 0 953 -0.3 24
2020-01-12 16:00:00 13.6 8 Noroeste 21 Noroeste 0 952.8 -1.1 25
2020-01-12 15:00:00 13.4 7 Norte 23 Oeste 0 952.8 -2.2 24
2020-01-12 14:00:00 12.3 9 Noroeste 26 Oeste 0 953.3 -1.6 27
2020-01-12 13:00:00 11.3 18 Oeste 40 Noroeste 0 953.9 -0.7 31
2020-01-12 12:00:00 10.5 12 Oeste 42 Noroeste 0 955 0.6 33
2020-01-12 11:00:00 9.3 19 Noroeste 39 Noroeste 0 954.9 0.6 36
2020-01-12 10:00:00 7.9 10 Noroeste 31 Oeste 0 954.6 0.3 42
2020-01-12 09:00:00 4.3 7 Sudoeste 19 Sudeste 0 954.4 0.2 57
2020-01-12 08:00:00 -0.1 5 Sur 20 Oeste 0 954.3 -0.2 81
2020-01-12 07:00:00 -2.1 4 Sudoeste 8 Noroeste 0 954.3 -0.5 85
2020-01-12 06:00:00 -1.4 3 Oeste 10 Oeste 0 954.2 -0.5 86
2020-01-12 05:00:00 -2 3 Oeste 10 Sudoeste 0 954.5 -0.3 83
2020-01-12 04:00:00 -0.6 3 Sudoeste 10 Sudeste 0 954.8 -0.4 79
2020-01-12 03:00:00 -0.5 3 Este 12 Oeste 0 954.7 -0.6 84
2020-01-12 02:00:00 -0.6 3 Oeste 9 Sudoeste 0 954.8 -0.6 84
2020-01-12 01:00:00 -0.3 3 Oeste 6 Oeste 0 955.2 0.1 82
2020-01-12 00:00:00 -0.2 2 Sudoeste 7 Sudoeste 0 955.3 0.1 80
2020-01-11 23:00:00 0.5 3 Sudeste 6 Sudoeste 0 955.4 0.4 77
2020-01-11 22:00:00 1.2 3 Sudoeste 9 Oeste 0 955.1 0.4 76
2020-01-11 21:00:00 3.2 5 Oeste 16 Oeste 0 955.2 1 68
2020-01-11 20:00:00 4.6 13 Oeste 18 Oeste 0 955 1.2 68
2020-01-11 19:00:00 6.2 12 Oeste 17 Oeste 0 954.7 1 63
2020-01-11 18:00:00 10.4 3 Oeste 13 Sudeste 0 954.2 0.3 47
2020-01-11 17:00:00 12.7 4 Este 15 Norte 0 953.8 -0.7 34
2020-01-11 16:00:00 13.2 5 Sudeste 15 Norte 0 953.7 -1.6 35
2020-01-11 15:00:00 12.3 6 Norte 14 Norte 0 953.9 -2.1 39
2020-01-11 14:00:00 11.7 5 Norte 13 Sudoeste 0 954.5 -1.6 41
2020-01-11 13:00:00 11.2 5 Nordeste 16 Nordeste 0 955.3 -0.2 44
2020-01-11 12:00:00 9.3 9 Nordeste 18 Norte 0 956 1.1 50
2020-01-11 11:00:00 8.1 13 Norte 23 Norte 0 956.1 1.7 53
2020-01-11 10:00:00 6.4 4 Sudeste 8 Sudeste 0 955.5 1.4 65
2020-01-11 09:00:00 1.3 3 Sudoeste 9 Sudoeste 0 954.9 1.1 84
2020-01-11 08:00:00 0.7 5 Sudoeste 8 Sudeste 0 954.4 0.9 82
2020-01-11 07:00:00 2.3 4 Sudoeste 9 Sudeste 0 954.1 0.8 78
2020-01-11 06:00:00 3.8 3 Sudeste 27 Noroeste 0 953.8 0.4 72
2020-01-11 05:00:00 6 17 Norte 28 Noroeste 0 953.5 0.6 66
2020-01-11 04:00:00 6 15 Noroeste 27 Norte 0 953.3 0.2 67
2020-01-11 03:00:00 5.7 14 Noroeste 25 Norte 0 953.4 0 73
2020-01-11 02:00:00 4.9 4 Este 21 Norte 0 952.9 0 76
2020-01-11 01:00:00 6.9 15 Norte 29 Norte 0 953.1 0.4 71
2020-01-11 00:00:00 6.8 17 Norte 26 Norte 0 953.4 1 73
2020-01-10 23:00:00 5.9 11 Nordeste 28 Nordeste 0 952.9 0.8 77
2020-01-10 22:00:00 6.6 19 Nordeste 31 Norte 0 952.7 1.3 72
2020-01-10 21:00:00 6.4 17 Nordeste 28 Nordeste 0 952.4 2.1 73
2020-01-10 20:00:00 5.5 5 Nordeste 22 Nordeste 0 952.1 2.5 74
2020-01-10 19:00:00 6.7 12 Nordeste 27 Nordeste 0 951.4 2 70
2020-01-10 18:00:00 8.2 14 Nordeste -- -- 0 950.3 1.1 57
2020-01-10 17:00:00 11.6 14 Nordeste 28 Nordeste 0 949.6 0.2 37
2020-01-10 16:00:00 12 17 Nordeste 30 Nordeste 0 949.4 -0.4 38
2020-01-10 15:00:00 11.6 14 Nordeste 30 Nordeste 0 949.2 -1.3 41
2020-01-10 14:00:00 11.7 22 Norte 35 Norte 0 949.4 -1.3 43
2020-01-10 13:00:00 11 9 Norte 21 Nordeste 0 949.8 -0.7 50
2020-01-10 12:00:00 9.8 13 Norte 30 Noroeste 0 950.5 1.2 58
2020-01-10 11:00:00 8.8 17 Noroeste 38 Oeste 0 950.7 1.9 63
2020-01-10 10:00:00 7.5 20 Noroeste 56 Noroeste 0 950.5 1.9 70
2020-01-10 09:00:00 6.9 27 Noroeste 55 Noroeste 0 949.3 0.9 74
2020-01-10 08:00:00 6.9 15 Noroeste 52 Noroeste 0 948.8 0.1 73
2020-01-10 07:00:00 7.3 26 Noroeste 48 Oeste 0 948.6 -0.3 72
2020-01-10 06:00:00 7.7 26 Noroeste 51 Norte 0 948.4 -1.1 70
2020-01-10 05:00:00 7.8 19 Oeste 40 Oeste 0 948.7 -0.8 69
2020-01-10 04:00:00 6.5 15 Oeste 30 Oeste 0 948.9 -0.5 86
2020-01-10 03:00:00 2.8 4 Sudoeste 7 Sudoeste 0 949.5 -1.1 90
2020-01-10 02:00:00 2.7 2 Noroeste 9 Sudoeste 0 949.5 -1.1 89
2020-01-10 01:00:00 3.3 2 Oeste 6 Oeste 0 949.4 -0.6 87
2020-01-10 00:00:00 3.5 2 Noroeste 6 Sudoeste 0 950.6 -0.3 85
2020-01-09 23:00:00 4.9 3 Nordeste 11 Sudoeste 0 950.6 -0.7 81
2020-01-09 22:00:00 6.4 5 Noroeste 13 Oeste 0 950 -0.4 76
2020-01-09 21:00:00 7.1 3 Nordeste 17 Oeste 0 950.9 0.9 73
2020-01-09 20:00:00 7.2 12 Oeste 18 Oeste 0 951.3 1.1 75
2020-01-09 19:00:00 7.8 11 Oeste 14 Oeste 0 950.4 0 72
2020-01-09 18:00:00 10.1 8 Sudoeste 12 Sur 0 950 -1 62
2020-01-09 17:00:00 12.7 7 Sur 12 Sudeste 0 950.2 -1.3 53
2020-01-09 16:00:00 13.6 5 Sudeste 14 Sudoeste 0 950.4 -2 49
2020-01-09 15:00:00 12.7 7 Sudoeste 15 Oeste 0 951 -2.3 53
2020-01-09 14:00:00 12.1 5 Sudoeste 15 Oeste 0 951.5 -2.2 60
2020-01-09 13:00:00 9.6 5 Oeste 9 Oeste 0 952.4 -1.1 88
2020-01-09 12:00:00 6.3 3 Norte 6 Norte 0 953.3 0 95
2020-01-09 11:00:00 4.7 3 Norte 5 Norte 0 953.7 0.4 94
2020-01-09 10:00:00 3.7 2 Sur 6 Oeste 0 953.5 0 94
2020-01-09 09:00:00 3.3 4 Sudoeste 6 Sudoeste 0 953.3 -0.1 94
2020-01-09 08:00:00 3.1 3 Sur 8 Oeste 0 953.3 -0.3 94
2020-01-09 07:00:00 2.2 4 Sudoeste 7 Sudoeste 0 953.5 -0.6 94
2020-01-09 06:00:00 2.7 2 Oeste 4 Oeste 0 953.4 -1 94
2020-01-09 05:00:00 2.4 0 Calma 6 Nordeste 0 953.6 -1 94
2020-01-09 04:00:00 2.3 2 Este 8 Sudoeste 0 954.1 -0.7 94
2020-01-09 03:00:00 2.7 5 Oeste 8 Oeste 0 954.4 -0.8 93
2020-01-09 02:00:00 3.8 5 Oeste 6 Oeste 0 954.6 -0.7 93
2020-01-09 01:00:00 4.1 4 Sudoeste 12 Oeste 0 954.8 -0.4 93
2020-01-09 00:00:00 3.9 8 Oeste 11 Oeste 0 955.2 0.2 92
2020-01-08 23:00:00 1.6 5 Sudoeste 10 Sudoeste 0 955.3 0.4 90
2020-01-08 22:00:00 2.8 8 Oeste 10 Oeste 0 955.2 0.5 89
2020-01-08 21:00:00 3.4 7 Sudoeste 11 Oeste 0 955 0.4 86
2020-01-08 20:00:00 4.5 7 Oeste 10 Oeste 0 954.9 0.7 84
2020-01-08 19:00:00 7.2 0 Calma 17 Este 0 954.7 0.9 77
2020-01-08 18:00:00 9.3 9 Nordeste 17 Nordeste 0 954.6 0.7 69
2020-01-08 17:00:00 11.4 9 Nordeste 21 Nordeste 0 954.2 0.2 58
2020-01-08 16:00:00 12.7 11 Nordeste 23 Nordeste 0 953.8 -0.6 50
2020-01-08 15:00:00 13.8 12 Este 22 Nordeste 0 953.9 -0.9 40
2020-01-08 14:00:00 13.8 14 Nordeste 22 Nordeste 0 954 -0.8 38
2020-01-08 13:00:00 13.3 14 Nordeste 22 Nordeste 0 954.4 0.2 37
2020-01-08 12:00:00 12.8 9 Nordeste 17 Nordeste 0 954.8 1.1 36
2020-01-08 11:00:00 11.8 5 Este 9 Sudeste 0 954.8 1.3 41
2020-01-08 10:00:00 7.9 4 Sudoeste 8 Sur 0 954.2 1.3 55
2020-01-08 09:00:00 2 3 Sudoeste 12 Sudoeste 0 953.7 0.7 79
2020-01-08 08:00:00 0.3 6 Oeste 12 Oeste 0 953.5 0.2 82
2020-01-08 07:00:00 -0.2 6 Oeste 10 Oeste 0 952.9 -0.5 84
2020-01-08 06:00:00 0.1 8 Sudoeste 14 Oeste 0 953 -0.4 84
2020-01-08 05:00:00 -0.9 4 Sudoeste 10 Oeste 0 953.3 -0.1 84
2020-01-08 04:00:00 -0.4 8 Oeste 11 Oeste 0 953.4 -0.6 84
2020-01-08 03:00:00 -0.1 2 Sudoeste 6 Sudoeste 0 953.4 -1 81
2020-01-08 02:00:00 0.2 0 Calma 9 Oeste 0 953.4 -1.1 81
2020-01-08 01:00:00 0.6 5 Sudoeste 7 Sudoeste 0 954 -0.5 79
2020-01-08 00:00:00 2.1 0 Calma 10 Oeste 0 954.4 -0.1 72
2020-01-07 23:00:00 4.1 5 Oeste 14 Sudoeste 0 954.5 0.2 64
2020-01-07 22:00:00 4.1 3 Sudeste 9 Sudeste 0 954.5 0.6 65
2020-01-07 21:00:00 3.8 2 Oeste 7 Sudoeste 0 954.5 0.9 65
2020-01-07 20:00:00 6.5 0 Calma 14 Sudoeste 0 954.3 0.9 53
2020-01-07 19:00:00 8.3 7 Oeste 10 Oeste 0 953.9 0.6 47
2020-01-07 18:00:00 11.7 2 Sudoeste 10 Sur 0 953.6 0.1 48
2020-01-07 17:00:00 15.9 5 Sur 18 Sur 0 953.4 -0.9 35
2020-01-07 16:00:00 16.6 8 Sur 12 Sur 0 953.3 -1.8 31
2020-01-07 15:00:00 17.3 5 Sudeste 9 Sudeste 0 953.5 -2.5 31
2020-01-07 14:00:00 16 3 Este 10 Este 0 954.3 -2.1 33
2020-01-07 13:00:00 15.1 4 Sur 8 Sur 0 955.1 -1 33
2020-01-07 12:00:00 12.6 3 Oeste 6 Este 0 956 0.5 44
2020-01-07 11:00:00 8.7 2 Sudeste 5 Sudoeste 0 956.4 1.1 55
2020-01-07 10:00:00 4.7 0 Calma 4 Sudeste 0 956.1 1 71
2020-01-07 09:00:00 -0.4 3 Oeste 8 Oeste 0 955.5 0.7 86
2020-01-07 08:00:00 -0.9 6 Oeste 11 Sudoeste 0 955.3 0.5 86
2020-01-07 07:00:00 -1.4 3 Oeste 8 Sudoeste 0 955.1 0.1 85
2020-01-07 06:00:00 -0.4 4 Sudoeste 9 Oeste 0 954.8 -0.2 83
2020-01-07 05:00:00 0.3 3 Sur 11 Sudeste 0 954.8 0 77
2020-01-07 04:00:00 2.6 7 Sur 14 Sudeste 0 955 0.1 77
2020-01-07 03:00:00 -0.3 3 Este 11 Oeste 0 955 0.1 80
2020-01-07 02:00:00 -0.2 6 Sudoeste 12 Sudoeste 0 954.8 0.2 81
2020-01-07 01:00:00 0.3 4 Sudoeste 9 Sudoeste 0 954.9 0.5 79
2020-01-07 00:00:00 0.9 7 Oeste 12 Oeste 0 954.9 1 78
2020-01-06 23:00:00 0.9 6 Oeste 9 Oeste 0 954.6 0.9 80
2020-01-06 22:00:00 1.8 3 Oeste 9 Sudoeste 0 954.4 1.3 78
2020-01-06 21:00:00 3.5 3 Sudoeste 6 Oeste 0 953.9 1.1 70
2020-01-06 20:00:00 7.2 4 Oeste 19 Oeste 0 953.7 1.1 57
2020-01-06 19:00:00 8.2 14 Oeste 17 Sudoeste 0 953.1 0.7 51
2020-01-06 18:00:00 9.2 8 Oeste 12 Oeste 0 952.8 0.4 47
2020-01-06 17:00:00 14.7 8 Sur 13 Sur 0 952.6 -0.2 27
2020-01-06 16:00:00 15.3 6 Nordeste 12 Nordeste 0 952.4 -1.3 27
2020-01-06 15:00:00 14.5 8 Nordeste 14 Este 0 952.4 -2.1 29
2020-01-06 14:00:00 14.9 4 Sur 9 Sur 0 952.8 -1.9 34
2020-01-06 13:00:00 12.4 3 Este 9 Nordeste 0 953.7 -1 48
2020-01-06 12:00:00 9.5 2 Nordeste 6 Nordeste 0 954.5 0.1 52
2020-01-06 11:00:00 6.5 3 Sudeste 6 Sudeste 0 954.7 0.8 71
2020-01-06 10:00:00 1.6 0 Calma 8 Sudoeste 0 954.7 1 90